Pagrindinis puslapis
METAR-TAF:

METAR-TAF

Oro uostai :

Woodward, Oklahoma, Jungtinės Amerikos Valstijos

platuma: 36-26-12N, ilguma: 099-31-16W, Aukštis: 667 m

Dabartinis oras

Ataskaita buvo paskelbta 37 minutes, ne 09:30 UTC
Ramus vėjas
Temperatūra 11°C
Drėgmė 54%
Slėgis 1023 hPa
Matomumas: 16.1 km
Giedras dangus

METAR: KWWR 020930Z AUTO 00000KT 10SM CLR 11/02 A3021 RMK AO2 LTG DSNT W

Laikas: 05:07 (10:07 UTC)

Prognozė

Ataskaita buvo paskelbta 4 valandos ir 47 minutes, ne 05:20 UTC
Prognozė galioja nuo 02 metu 06 UTC su 03 metu 06 UTC
Vėjas 7 kt iš Pietryčių
Matomumas: 10 km
Giedras dangus

TAF: KWWR 020520Z 0206/0306 13007KT P6SM SKC

Orai ataskaitas ir orų prognozės (METAR, TAF).

turimą stotys yra geltonos ir raudonos taškus žemėlapyje.

Perkelti pele per norėdami pamatyti stoties vardą.

Tada spustelėkite, norėdami matyti oro stebėjimo ir prognozės.

Norėdami pakeisti žemėlapį: spustelėkite ant žalios mygtukų su juodo kryžiaus žemyn,; žalią mygtuką su brūkšneliu, jei norite nutolinti; arba žalių rodyklių gretimoms žemėlapius.


METAR-TAF: